ETOU 192356Z AUTO 11004KT 9999 FEW075 BKN100 17/16 A3017 RMK AO2 LTG DSNT W SLP214 T01650163 10190 20157 50001 $ ETOU 192256Z AUTO 03004KT 9999 SCT110 17/17 A3018 RMK AO2 SLP218 T01680166 403010165 ETOU 192156Z AUTO 00000KT 9999 CLR 17/17 A3018 RMK AO2 SLP218 T01720170 ETOU 192056Z AUTO 11003KT 9999 CLR 18/18 A3016 RMK AO2 SLP211 T01780176 52018 ETOU 191956Z AUTO 10005KT 9999 FEW110 SCT140 18/18 A3016 RMK AO2 LTG DSNT S-SW SLP212 T01830181 ETOU 191856Z AUTO 00000KT 9999 FEW070 SCT080 SCT150 19/18 A3013 RMK AO2 TSE04 SLP202 T01880178 ETOU 191804Z AUTO 36006KT 9999 CLR 19/18 A3012 RMK AO2 LTG DSNT E AND SW TSE04 SLP199 $ ETOU 191756Z AUTO 01007KT 9999 TS FEW080 18/18 A3011 RMK AO2 RAE32DZB32E34RAB34E46 TSE17TSB24E38TSB49 SLP195 P0010 60011 T01840181 10301 20183 50023 ETOU 191749Z AUTO 01003KT 9999 TS FEW080 19/18 A3011 RMK AO2 RAE32DZB32E34RAB34E46 TSE17TSB24E38TSB49 SLP195 $ ETOU 191746Z AUTO 02004KT 9999 FEW085 19/18 A3011 RMK AO2 LTG DSNT E AND W RAE32DZB32E34RAB34E46 TSE17TSB24E38 SLP195 $ ETOU 191738Z AUTO 01006KT 9999 -RA SCT065 BKN085 18/18 A3011 RMK AO2 LTG DSNT E-SE RAE32DZB32E34RAB34 TSE17TSB24E38 SLP196 $ ETOU 191724Z AUTO 10007KT 9999 -TSRA BKN060 BKN075 BKN085 19/18 A3011 RMK AO2 TSE17TSB24 SLP195 $ ETOU 191722Z AUTO 11007KT 8000 -RA BKN060 BKN075 BKN085 19/18 A3012 RMK AO2 LTG DSNT N AND E-SE AND SW-W TSE17 SLP199 $ ETOU 191717Z AUTO 07003G17KT 2400 +RA BKN055 BKN070 19/17 A3011 RMK AO2 VIS 2400V9999 LTG DSNT N-SE AND SW-W TSE17 SLP195 $ ETOU 191716Z AUTO 00000KT 2800 +TSRA BKN049 BKN060 BKN075 19/17 A3011 RMK AO2 VIS 2400V9999 PRESFR SLP195 $ ETOU 191656Z AUTO 34009G19KT 9999 -TSRA SCT050 SCT110 20/16 A3013 RMK AO2 RAB17E18DZB18E19RAB19E47DZB47E53RAB53 TSB38 PRESRR SLP202 P0001 T02010159 ETOU 191638Z AUTO 34008G18KT 9999 -TSRA FEW050 FEW060 22/16 A3011 RMK AO2 RAB17E18DZB18E19RAB19 TSB38 SLP195 $ ETOU 191622Z AUTO 34011G20KT 9999 VCTS -RA FEW050 SCT070 BKN110 27/15 A3010 RMK AO2 WSHFT 16 RAB17E18DZB18E19RAB19 SLP190 $ ETOU 191617Z AUTO 32013G19KT 9999 -RA FEW060 FEW075 SCT110 28/16 A3010 RMK AO2 LTG DSNT SW-N RAB17 PRESRR SLP190 $ ETOU 191556Z AUTO 25010KT 9999 FEW170 28/16 A3005 RMK AO2 LTG DSNT SW-N SLP173 T02770160 ETOU 191456Z AUTO 24011KT 9999 FEW065 30/16 A3004 RMK AO2 SLP169 T03010157 57015 ETOU 191356Z AUTO 18008KT 9999 CLR 30/17 A3005 RMK AO2 SLP172 T02950166 ETOU 191256Z AUTO 16004KT 9999 FEW160 SCT180 SCT230 27/15 A3007 RMK AO2 SLP180 T02730150 ETOU 191156Z AUTO 16005KT 9999 SCT130 SCT190 26/14 A3009 RMK AO2 SLP186 T02620143 10262 20194 57014 ETOU 191056Z AUTO 17003KT 9999 FEW160 25/14 A3010 RMK AO2 SLP190 T02500138 $ ETOU 190956Z AUTO 18005KT 9999 CLR 25/12 A3012 RMK AO2 SLP197 T02500119 $ ETOU 190856Z AUTO 12005KT 9999 CLR 23/12 A3013 RMK AO2 SLP200 T02330120 55003 $ ETOU 190756Z AUTO 09006KT 9999 CLR 22/12 A3013 RMK AO2 SLP200 T02190116 $ ETOU 190656Z AUTO 08005KT 9999 CLR 21/11 A3013 RMK AO2 SLP200 T02100110 $ ETOU 190556Z AUTO 06006KT 9999 CLR 19/10 A3014 RMK AO2 SLP204 T01940104 10194 20166 53005 $ ETOU 190456Z AUTO 06004KT 9999 CLR 18/11 A3013 RMK AO2 SLP200 T01830106 ETOU 190356Z AUTO 07004KT 9999 CLR 18/11 A3012 RMK AO2 SLP197 T01780111 ETOU 190256Z AUTO 04003KT 9999 CLR 17/12 A3012 RMK AO2 SLP197 T01710124 57005 ETOU 190156Z AUTO 00000KT 9999 CLR 18/12 A3013 RMK AO2 SLP200 T01760121 ETOU 190056Z AUTO 00000KT 9999 CLR 18/12 A3013 RMK AO2 SLP200 T01840124 ETOU 182356Z AUTO 06003KT 9999 CLR 19/12 A3014 RMK AO2 SLP203 T01920122 10256 20191 50000 ETOU 182256Z AUTO 07005KT 9999 CLR 20/12 A3014 RMK AO2 SLP203 T02030123 402870126 ETOU 182156Z AUTO 08004KT 9999 CLR 21/13 A3014 RMK AO2 SLP203 T02060126 ETOU 182056Z AUTO 07007KT 9999 CLR 21/12 A3014 RMK AO2 SLP204 T02130124 50003 ETOU 181956Z AUTO 06006KT 9999 CLR 23/13 A3014 RMK AO2 SLP203 T02250127 ETOU 181856Z AUTO 07006KT 9999 CLR 23/13 A3013 RMK AO2 SLP200 T02310130 ETOU 181756Z AUTO 10006KT 9999 CLR 26/13 A3013 RMK AO2 SLP200 T02570132 10287 20257 57004 ETOU 181656Z AUTO 08006KT 9999 FEW080 28/13 A3013 RMK AO2 SLP201 T02770125 ETOU 181556Z AUTO 00000KT 9999 CLR 28/12 A3014 RMK AO2 SLP205 T02840119 ETOU 181456Z AUTO 15003KT 9999 CLR 29/12 A3014 RMK AO2 SLP203 T02850115 57014 ETOU 181414Z AUTO 14013G17KT 9999 CLR 28/12 A3015 RMK AO2 WSHFT 13 SLP207 $ ETOU 181356Z AUTO 15006KT 9999 CLR 28/12 A3016 RMK AO2 SLP210 T02800115 ETOU 181310Z AUTO 13014G18KT 9999 CLR 27/13 A3017 RMK AO2 WSHFT 09 SLP215 $ ETOU 181256Z AUTO 16004KT 9999 CLR 28/12 A3017 RMK AO2 SLP214 T02780122 $

METAR Messwerte "WIESBADEN (USA-A" ETOU

Zurück zur Übersicht

Ortsname
Ländercode / m ü. NN
Zeit Temperatur Taupunkt Rel.
Luftfeuchte
Luftdruck:
Altimeter
NN
Station
Wind in Beaufort
(Knoten)
Sichtweite
(Meter)
Wolken
(Meter über Grund)
Wettererscheinung
WIESBADEN (USA-A
DE 141
Fr 20.05. 01:56171694 %1022
1022
1005
OSO 2 (4)>= 10000Stark bewölkt (3000)
Leicht bewölkt (2300)
 
WIESBADEN (USA-A
DE 141
Fr 20.05. 00:561717100 %1022
1022
1005
NNO 2 (4)>= 10000Wolkig (3400) 
WIESBADEN (USA-A
DE 141
Do 19.05. 23:561717100 %1022
1022
1005
Windstill>= 10000  
WIESBADEN (USA-A
DE 141
Do 19.05. 22:561818100 %1021
1021
1004
OSO 2 (3)>= 10000  
WIESBADEN (USA-A
DE 141
Do 19.05. 21:561818100 %1021
1021
1004
O 2 (5)>= 10000Wolkig (4300)
Leicht bewölkt (3400)
 
WIESBADEN (USA-A
DE 141
Do 19.05. 20:56191894 %1020
1020
1003
Windstill>= 10000Wolkig (4600)
Wolkig (2400)
Leicht bewölkt (2100)
 
WIESBADEN (USA-A
DE 141
Do 19.05. 20:04191894 %1020
1020
1003
N 2 (6)>= 10000  
WIESBADEN (USA-A
DE 141
Do 19.05. 19:561818100 %1020
1020
1003
N 3 (7)>= 10000Leicht bewölkt (2400) 
WIESBADEN (USA-A
DE 141
Do 19.05. 19:49191894 %1020
1020
1003
N 2 (3)>= 10000Leicht bewölkt (2400) 
WIESBADEN (USA-A
DE 141
Do 19.05. 19:46191894 %1020
1020
1003
NNO 2 (4)>= 10000Leicht bewölkt (2600) 
WIESBADEN (USA-A
DE 141
Do 19.05. 19:381818100 %1020
1020
1003
N 2 (6)>= 10000Stark bewölkt (2600)
Wolkig (2000)
Regen (schwach)
WIESBADEN (USA-A
DE 141
Do 19.05. 19:24191894 %1020
1020
1003
O 3 (7)>= 10000Stark bewölkt (2600)
Stark bewölkt (2300)
Stark bewölkt (1800)
Gewitter mit Regen (schwach)
WIESBADEN (USA-A
DE 141
Do 19.05. 19:22191894 %1020
1020
1003
OSO 3 (7)8000Stark bewölkt (2600)
Stark bewölkt (2300)
Stark bewölkt (1800)
Regen (schwach)
WIESBADEN (USA-A
DE 141
Do 19.05. 19:17191788 %1020
1020
1003
ONO 2 (3) - 5 (17)2400Stark bewölkt (2100)
Stark bewölkt (1700)
Regen (stark)
WIESBADEN (USA-A
DE 141
Do 19.05. 19:16191788 %1020
1020
1003
Windstill2800Stark bewölkt (2300)
Stark bewölkt (1800)
Stark bewölkt (1500)
Gewitter mit Regen (stark)
WIESBADEN (USA-A
DE 141
Do 19.05. 18:56201678 %1020
1020
1003
NNW 3 (9) - 5 (19)>= 10000Wolkig (3400)
Wolkig (1500)
Gewitter mit Regen (schwach)
WIESBADEN (USA-A
DE 141
Do 19.05. 18:38221669 %1020
1020
1003
NNW 3 (8) - 5 (18)>= 10000Leicht bewölkt (1800)
Leicht bewölkt (1500)
Gewitter mit Regen (schwach)
WIESBADEN (USA-A
DE 141
Do 19.05. 18:22271548 %1019
1018
1002
NNW 4 (11) - 5 (20)>= 10000Stark bewölkt (3400)
Wolkig (2100)
Leicht bewölkt (1500)
Regen (schwach)
WIESBADEN (USA-A
DE 141
Do 19.05. 18:17281648 %1019
1018
1002
NW 4 (13) - 5 (19)>= 10000Wolkig (3400)
Leicht bewölkt (2300)
Leicht bewölkt (1800)
Regen (schwach)
WIESBADEN (USA-A
DE 141
Do 19.05. 17:56281648 %1018
1017
1001
WSW 3 (10)>= 10000Leicht bewölkt (5200) 
WIESBADEN (USA-A
DE 141
Do 19.05. 16:56301643 %1017
1016
1000
WSW 4 (11)>= 10000Leicht bewölkt (2000) 
WIESBADEN (USA-A
DE 141
Do 19.05. 15:56301746 %1018
1017
1001
S 3 (8)>= 10000  
WIESBADEN (USA-A
DE 141
Do 19.05. 14:56271548 %1018
1017
1001
SSO 2 (4)>= 10000Wolkig (7000)
Wolkig (5500)
Leicht bewölkt (4900)
 
WIESBADEN (USA-A
DE 141
Do 19.05. 13:56261448 %1019
1018
1002
SSO 2 (5)>= 10000Wolkig (5800)
Wolkig (4000)
 
WIESBADEN (USA-A
DE 141
Do 19.05. 12:56251450 %1019
1018
1002
S 2 (3)>= 10000Leicht bewölkt (4900) 
WIESBADEN (USA-A
DE 141
Do 19.05. 11:56251244 %1020
1019
1003
S 2 (5)>= 10000  
WIESBADEN (USA-A
DE 141
Do 19.05. 10:56231250 %1020
1020
1003
OSO 2 (5)>= 10000  
WIESBADEN (USA-A
DE 141
Do 19.05. 09:56221253 %1020
1020
1003
O 2 (6)>= 10000  
WIESBADEN (USA-A
DE 141
Do 19.05. 08:56211153 %1020
1020
1003
O 2 (5)>= 10000  
WIESBADEN (USA-A
DE 141
Do 19.05. 07:56191056 %1021
1021
1004
ONO 2 (6)>= 10000  
WIESBADEN (USA-A
DE 141
Do 19.05. 06:56181164 %1020
1020
1003
ONO 2 (4)>= 10000  
WIESBADEN (USA-A
DE 141
Do 19.05. 05:56181164 %1020
1020
1003
ONO 2 (4)>= 10000  
WIESBADEN (USA-A
DE 141
Do 19.05. 04:56171272 %1020
1020
1003
NO 2 (3)>= 10000  
WIESBADEN (USA-A
DE 141
Do 19.05. 03:56181268 %1020
1020
1003
Windstill>= 10000  
WIESBADEN (USA-A
DE 141
Do 19.05. 02:56181268 %1020
1020
1003
Windstill>= 10000  
WIESBADEN (USA-A
DE 141
Do 19.05. 01:56191264 %1021
1021
1004
ONO 2 (3)>= 10000  
WIESBADEN (USA-A
DE 141
Do 19.05. 00:56201260 %1021
1021
1004
ONO 2 (5)>= 10000  
WIESBADEN (USA-A
DE 141
Mi 18.05. 23:56211360 %1021
1021
1004
O 2 (4)>= 10000  
WIESBADEN (USA-A
DE 141
Mi 18.05. 22:56211256 %1021
1021
1004
ONO 3 (7)>= 10000  
WIESBADEN (USA-A
DE 141
Mi 18.05. 21:56231353 %1021
1021
1004
ONO 2 (6)>= 10000  
WIESBADEN (USA-A
DE 141
Mi 18.05. 20:56231353 %1020
1020
1003
ONO 2 (6)>= 10000  
WIESBADEN (USA-A
DE 141
Mi 18.05. 19:56261345 %1020
1019
1003
O 2 (6)>= 10000  
WIESBADEN (USA-A
DE 141
Mi 18.05. 18:56281340 %1020
1019
1003
O 2 (6)>= 10000Leicht bewölkt (2400) 
WIESBADEN (USA-A
DE 141
Mi 18.05. 17:56281237 %1021
1020
1004
Windstill>= 10000  
WIESBADEN (USA-A
DE 141
Mi 18.05. 16:56291235 %1021
1020
1004
SSO 2 (3)>= 10000  
WIESBADEN (USA-A
DE 141
Mi 18.05. 16:14281237 %1021
1020
1004
SO 4 (13) - 5 (17)>= 10000  
WIESBADEN (USA-A
DE 141
Mi 18.05. 15:56281237 %1021
1020
1004
SSO 2 (6)>= 10000  
WIESBADEN (USA-A
DE 141
Mi 18.05. 15:10271342 %1022
1021
1005
SO 4 (14) - 5 (18)>= 10000  
WIESBADEN (USA-A
DE 141
Mi 18.05. 14:56281237 %1022
1021
1005
SSO 2 (4)>= 10000  

Altimeter: Einstellung am Altimeter (Höhenmesser), die Höhe 0 muss auf diesen Luftdruckwert zeigen, damit das Gerät die Stationshöhe richtig anzeigt.

NN: Luftdruck reduziert auf "Normal Null", auf Meereshöhe, dieser von der Temperatur abhängige Wert wird bisweilen unkorrekt einfach als "Luftdruck" bezeichnet. Eigentlich nur eine fiktive Größe, die es erlaubt, Stationen auf unterschiedlichen Höhen miteinander zu vergleichen.

Station: Realer Luftdruck an der Station.